Time;durP1;ratioP1;P1;durP2;ratioP2;P2;SDS_P1;SDS_P2;PMS_P1;PMS_P2;Temp;Humidity;BMP_temperature;BMP_pressure;BME280_temperature;BME280_humidity;BME280_pressure;Samples;Min_cycle;Max_cycle;Signal;HPM_P1;HPM_P2
2021/08/13 00:01:47;;;;;;;16.38;13.80;;;36.60;99.90;;;;;;5036809;28;20208;-93
2021/08/13 00:09:48;;;;;;;22.38;17.65;;;37.00;99.50;;;;;;5051440;22;20217;-93
2021/08/13 00:12:22;;;;;;;20.73;18.52;;;36.90;99.60;;;;;;5029277;28;20229;-93
2021/08/13 00:14:57;;;;;;;80.60;17.83;;;36.60;99.10;;;;;;5032076;28;20200;-94
2021/08/13 00:17:36;;;;;;;17.88;15.48;;;36.40;99.90;;;;;;5030773;28;20244;-94
2021/08/13 00:20:20;;;;;;;677.55;46.40;;;36.60;98.90;;;;;;5026731;28;20293;-94
2021/08/13 00:22:54;;;;;;;18.65;16.65;;;36.90;98.90;;;;;;5029267;28;20208;-93
2021/08/13 00:38:54;;;;;;;22.45;20.25;;;36.70;98.30;;;;;;4996292;28;20261;-94
2021/08/13 00:44:11;;;;;;;46.67;22.75;;;36.70;97.80;;;;;;4997504;28;20291;-94
2021/08/13 00:46:44;;;;;;;26.10;23.48;;;36.40;98.60;;;;;;4979846;28;20218;-94
2021/08/13 00:49:16;;;;;;;26.33;23.63;;;36.30;97.50;;;;;;4980623;28;20188;-93
2021/08/13 00:51:47;;;;;;;43.53;25.17;;;36.20;98.10;;;;;;4996303;28;20245;-94
2021/08/13 00:54:23;;;;;;;26.25;23.55;;;36.20;97.30;;;;;;4997938;28;20235;-92
2021/08/13 00:56:56;;;;;;;25.98;23.52;;;36.20;97.80;;;;;;4990885;28;20239;-92
2021/08/13 00:59:28;;;;;;;54.92;24.52;;;36.10;98.50;;;;;;4987525;28;20206;-92
2021/08/13 01:02:00;;;;;;;28.15;25.27;;;36.20;98.40;;;;;;5014333;28;20249;-91
2021/08/13 01:04:34;;;;;;;27.17;24.45;;;36.30;96.80;;;;;;5014495;28;20211;-92
2021/08/13 01:07:12;;;;;;;27.58;24.77;;;36.40;96.50;;;;;;5014792;28;20214;-92
2021/08/13 01:09:48;;;;;;;28.15;25.25;;;36.50;96.30;;;;;;5014966;28;20206;-92
2021/08/13 01:12:31;;;;;;;30.02;25.67;;;36.60;95.80;;;;;;5013848;28;20284;-92
2021/08/13 01:18:14;;;;;;;27.83;24.83;;;36.60;96.40;;;;;;5018785;28;20210;-92
2021/08/13 01:21:35;;;;;;;27.35;24.40;;;36.70;95.10;;;;;;5013279;28;20210;-92
2021/08/13 01:27:26;;;;;;;28.08;25.35;;;36.90;94.80;;;;;;5013425;28;20285;-93
2021/08/13 01:30:05;;;;;;;28.23;25.42;;;36.70;95.00;;;;;;5016651;28;20201;-92
2021/08/13 01:32:41;;;;;;;27.20;24.23;;;36.90;95.10;;;;;;5011791;28;20237;-92
2021/08/13 01:35:20;;;;;;;29.92;25.63;;;37.10;95.40;;;;;;5014683;28;20234;-93
2021/08/13 01:40:54;;;;;;;27.70;24.85;;;37.10;95.10;;;;;;5055210;28;20208;-92
2021/08/13 01:43:27;;;;;;;29.10;24.77;;;37.00;95.00;;;;;;5053601;28;20220;-93
2021/08/13 01:46:12;;;;;;;29.55;26.23;;;36.70;94.80;;;;;;5053631;28;20220;-92
2021/08/13 01:54:05;;;;;;;28.02;25.25;;;36.90;94.10;;;;;;4992060;28;20218;-93
2021/08/13 01:56:38;;;;;;;28.50;25.60;;;36.90;95.10;;;;;;4993792;28;20210;-93
2021/08/13 01:59:21;;;;;;;29.40;26.27;;;36.90;94.60;;;;;;4996868;28;20198;-93
2021/08/13 02:01:53;;;;;;;29.00;26.05;;;36.70;94.40;;;;;;5011343;28;20221;-92
2021/08/13 02:04:25;;;;;;;29.38;26.58;;;36.20;94.70;;;;;;5013251;28;20206;-94
2021/08/13 02:07:00;;;;;;;29.25;26.25;;;35.50;95.10;;;;;;5033976;28;20245;-93
2021/08/13 02:09:37;;;;;;;29.05;26.17;;;34.80;94.80;;;;;;5016830;28;20210;-92
2021/08/13 02:20:05;;;;;;;28.70;25.92;;;33.30;97.70;;;;;;5309502;22;20263;-91
2021/08/13 02:27:57;;;;;;;28.23;25.25;;;32.60;98.20;;;;;;5082538;22;20246;-92
2021/08/13 02:30:36;;;;;;;26.70;24.15;;;32.50;98.70;;;;;;5033513;28;20224;-92
2021/08/13 02:35:52;;;;;;;27.83;24.83;;;32.20;99.50;;;;;;5778296;22;20237;-93
2021/08/13 02:38:33;;;;;;;27.55;24.95;;;32.00;99.90;;;;;;5034400;28;20197;-93
2021/08/13 02:41:07;;;;;;;27.35;24.58;;;31.90;99.90;;;;;;5035905;28;20209;-93
2021/08/13 03:05:03;;;;;;;29.83;26.20;;;29.90;99.90;;;;;;4991162;28;20214;-92
2021/08/13 03:07:39;;;;;;;34.83;26.60;;;29.80;99.90;;;;;;4991918;28;20592;-92
2021/08/13 03:10:12;;;;;;;28.80;25.13;;;29.60;99.90;;;;;;4972700;28;20667;-92
2021/08/13 03:12:45;;;;;;;26.13;23.27;;;29.50;99.90;;;;;;4976229;28;20239;-92
2021/08/13 03:28:32;;;;;;;30.20;22.77;;;28.90;99.90;;;;;;5017197;28;20260;-91
2021/08/13 03:31:06;;;;;;;32.13;23.93;;;28.70;99.90;;;;;;5017755;28;20198;-93
2021/08/13 03:33:38;;;;;;;28.57;22.77;;;28.60;99.90;;;;;;5018188;28;20248;-93
2021/08/13 03:36:10;;;;;;;26.73;22.53;;;28.40;99.90;;;;;;5017339;28;20233;-93
2021/08/13 03:38:42;;;;;;;29.80;22.27;;;28.20;99.90;;;;;;5018062;28;20190;-91
2021/08/13 03:41:19;;;;;;;26.43;23.70;;;28.00;99.90;;;;;;5017491;28;20198;-90
2021/08/13 03:43:55;;;;;;;26.23;23.00;;;27.80;99.90;;;;;;5014810;28;20205;-91
2021/08/13 03:46:28;;;;;;;27.43;23.13;;;27.50;99.90;;;;;;5014966;28;20198;-91
2021/08/13 03:49:04;;;;;;;27.90;23.17;;;27.30;99.90;;;;;;5015049;28;20214;-93
2021/08/13 03:56:55;;;;;;;26.93;22.63;;;26.90;99.90;;;;;;5071268;28;20266;-92
2021/08/13 03:59:30;;;;;;;30.00;23.43;;;26.80;99.90;;;;;;5073037;28;20204;-91
2021/08/13 04:02:01;;;;;;;27.20;22.43;;;26.60;99.90;;;;;;5071655;28;20231;-92
2021/08/13 04:04:34;;;;;;;25.97;21.40;;;26.40;99.90;;;;;;5073116;28;20228;-91
2021/08/13 04:07:05;;;;;;;27.70;21.90;;;26.30;99.90;;;;;;5065846;28;20208;-92
2021/08/13 04:09:38;;;;;;;26.70;22.30;;;26.30;99.90;;;;;;5070119;28;20215;-92
2021/08/13 04:12:11;;;;;;;26.97;21.80;;;26.10;99.90;;;;;;5073899;28;20195;-93
2021/08/13 04:17:33;;;;;;;27.83;21.80;;;26.00;99.90;;;;;;5072627;28;20213;-92
2021/08/13 04:20:07;;;;;;;23.83;21.17;;;25.90;99.90;;;;;;5068698;28;20215;-93
2021/08/13 04:22:41;;;;;;;26.37;21.80;;;25.80;99.90;;;;;;5068738;28;20208;-92
2021/08/13 04:25:13;;;;;;;24.27;21.67;;;25.70;99.90;;;;;;5072105;28;20207;-91
2021/08/13 04:27:45;;;;;;;28.50;21.73;;;25.70;99.90;;;;;;5071202;28;20202;-92
2021/08/13 04:30:20;;;;;;;24.07;21.47;;;25.60;99.90;;;;;;5070537;28;20211;-93
2021/08/13 04:32:55;;;;;;;26.23;21.70;;;25.50;99.90;;;;;;5072812;28;20199;-90
2021/08/13 04:35:27;;;;;;;31.80;21.73;;;25.40;99.90;;;;;;5076527;28;20212;-91
2021/08/13 04:37:59;;;;;;;26.07;21.47;;;25.30;99.90;;;;;;5076351;28;20199;-91
2021/08/13 04:40:30;;;;;;;22.57;20.17;;;25.30;99.90;;;;;;5063795;28;20258;-92
2021/08/13 04:43:36;;;;;;;26.27;21.40;;;25.20;99.90;;;;;;5042492;28;20285;-92
2021/08/13 04:48:45;;;;;;;24.23;20.47;;;25.10;99.90;;;;;;5031253;28;20222;-93
2021/08/13 04:51:19;;;;;;;30.83;21.20;;;25.10;99.90;;;;;;5030419;28;20209;-91
2021/08/13 04:53:51;;;;;;;24.40;20.53;;;25.00;99.90;;;;;;5025725;28;20272;-92
2021/08/13 04:56:23;;;;;;;24.83;20.70;;;25.00;99.90;;;;;;5027115;28;20240;-92
2021/08/13 04:58:55;;;;;;;26.17;20.77;;;24.90;99.90;;;;;;5025989;28;20221;-92
2021/08/13 05:01:29;;;;;;;22.63;19.40;;;24.90;99.90;;;;;;5013925;28;20215;-91
2021/08/13 05:04:04;;;;;;;24.80;20.83;;;24.90;99.90;;;;;;5010541;28;20217;-91
2021/08/13 05:06:35;;;;;;;24.93;19.73;;;24.90;99.90;;;;;;5011118;28;20202;-91
2021/08/13 05:09:07;;;;;;;29.80;19.40;;;24.80;99.90;;;;;;5015812;28;20233;-93
2021/08/13 05:11:39;;;;;;;24.00;18.70;;;24.80;99.90;;;;;;5020248;28;20185;-92
2021/08/13 05:14:11;;;;;;;25.30;20.47;;;24.80;99.90;;;;;;5020539;28;20221;-91
2021/08/13 05:16:44;;;;;;;26.27;19.33;;;24.70;99.90;;;;;;5035704;28;20213;-93
2021/08/13 05:19:17;;;;;;;25.60;20.20;;;24.60;99.90;;;;;;5039188;28;20213;-92
2021/08/13 05:21:48;;;;;;;24.03;19.60;;;24.50;99.90;;;;;;5040147;28;20241;-92
2021/08/13 05:24:19;;;;;;;23.20;18.30;;;24.40;99.90;;;;;;5035529;28;20217;-89
2021/08/13 05:26:52;;;;;;;23.13;18.00;;;24.40;99.90;;;;;;5030040;28;20608;-91
2021/08/13 05:29:24;;;;;;;19.57;17.57;;;24.40;99.90;;;;;;5026939;28;20237;-92
2021/08/13 05:31:55;;;;;;;20.60;17.73;;;24.30;99.90;;;;;;5024686;28;20262;-93
2021/08/13 05:34:31;;;;;;;19.50;17.30;;;24.30;99.90;;;;;;5024972;28;20233;-92
2021/08/13 05:37:03;;;;;;;22.63;17.60;;;24.30;99.90;;;;;;5023464;28;20217;-92
2021/08/13 05:39:36;;;;;;;21.53;17.43;;;24.30;99.90;;;;;;5022151;28;20224;-92
2021/08/13 05:42:09;;;;;;;22.60;17.27;;;24.30;99.90;;;;;;5022313;28;20217;-93
2021/08/13 05:44:40;;;;;;;19.73;17.63;;;24.20;99.90;;;;;;5022354;28;20229;-92
2021/08/13 05:47:13;;;;;;;19.40;16.87;;;24.20;99.90;;;;;;5023223;28;20217;-92
2021/08/13 05:49:46;;;;;;;25.73;17.47;;;24.20;99.90;;;;;;5023185;28;20264;-92
2021/08/13 05:52:19;;;;;;;20.10;16.17;;;24.10;99.90;;;;;;5022468;28;20209;-92
2021/08/13 05:54:53;;;;;;;21.57;16.23;;;24.10;99.90;;;;;;5021493;28;20295;-92
2021/08/13 05:57:24;;;;;;;18.43;16.23;;;24.10;99.90;;;;;;5020471;28;20243;-91
2021/08/13 05:59:57;;;;;;;19.63;16.10;;;24.00;99.90;;;;;;5022069;28;20616;-92
2021/08/13 06:02:28;;;;;;;19.93;16.63;;;24.00;99.90;;;;;;5021501;28;20217;-92
2021/08/13 06:05:03;;;;;;;19.47;15.70;;;24.00;99.90;;;;;;5019849;28;20205;-92
2021/08/13 06:07:34;;;;;;;20.67;15.50;;;23.90;99.90;;;;;;5021064;28;20221;-92
2021/08/13 06:10:06;;;;;;;20.80;15.97;;;23.90;99.90;;;;;;5021567;28;20233;-92
2021/08/13 06:12:38;;;;;;;16.07;14.37;;;23.90;99.90;;;;;;5020578;28;20336;-92
2021/08/13 06:15:11;;;;;;;16.03;14.43;;;23.80;99.90;;;;;;5017214;28;20238;-91
2021/08/13 06:17:43;;;;;;;18.63;15.20;;;23.80;99.90;;;;;;5017912;28;20218;-92
2021/08/13 06:20:20;;;;;;;19.50;15.90;;;23.80;99.90;;;;;;5020881;28;20217;-93
2021/08/13 06:22:51;;;;;;;19.23;15.70;;;23.70;99.90;;;;;;5023619;28;20213;-92
2021/08/13 06:25:24;;;;;;;17.23;15.40;;;23.70;99.90;;;;;;5029403;28;20209;-92
2021/08/13 06:27:55;;;;;;;18.60;14.90;;;23.70;99.90;;;;;;5026051;28;20237;-92
2021/08/13 06:30:34;;;;;;;21.80;16.30;;;23.60;99.90;;;;;;5021624;28;20205;-92
2021/08/13 06:33:06;;;;;;;17.07;15.27;;;23.70;99.90;;;;;;5024286;28;20609;-92
2021/08/13 06:35:43;;;;;;;18.93;16.13;;;23.60;99.90;;;;;;5023552;28;20308;-92
2021/08/13 06:38:15;;;;;;;22.33;16.03;;;23.50;99.90;;;;;;5020119;28;20217;-92
2021/08/13 06:40:46;;;;;;;22.87;16.37;;;23.50;99.90;;;;;;5019256;28;20232;-92
2021/08/13 06:46:08;;;;;;;19.10;15.33;;;23.50;99.90;;;;;;5025112;28;20210;-92
2021/08/13 06:48:40;;;;;;;19.73;16.13;;;23.40;99.90;;;;;;5025342;28;20217;-92
2021/08/13 06:51:17;;;;;;;21.43;15.87;;;23.40;99.90;;;;;;5023230;28;20267;-91
2021/08/13 06:53:50;;;;;;;19.03;16.60;;;23.40;99.90;;;;;;5019625;28;20221;-92
2021/08/13 06:59:07;;;;;;;21.87;16.17;;;23.30;99.90;;;;;;5026704;28;20214;-91
2021/08/13 07:01:39;;;;;;;18.77;15.30;;;23.30;99.90;;;;;;5025922;28;20205;-92
2021/08/13 07:04:12;;;;;;;20.80;15.70;;;23.30;99.90;;;;;;5037237;28;20266;-92
2021/08/13 07:06:45;;;;;;;18.60;15.60;;;23.30;99.90;;;;;;5037865;28;20224;-92
2021/08/13 07:09:17;;;;;;;18.80;15.43;;;23.20;99.90;;;;;;5032421;28;20683;-92
2021/08/13 07:11:48;;;;;;;17.03;14.90;;;23.20;99.90;;;;;;5020770;28;20248;-92
2021/08/13 07:14:23;;;;;;;22.80;15.80;;;23.20;99.90;;;;;;5020649;28;20387;-92
2021/08/13 07:16:54;;;;;;;21.43;15.53;;;23.20;99.90;;;;;;5019741;28;20213;-91
2021/08/13 07:19:25;;;;;;;19.80;14.70;;;23.20;99.90;;;;;;5019584;28;20575;-92
2021/08/13 07:21:59;;;;;;;19.33;15.63;;;23.20;99.90;;;;;;5018756;28;20244;-92
2021/08/13 07:24:31;;;;;;;19.57;15.37;;;23.10;99.90;;;;;;5021166;28;20209;-91
2021/08/13 07:27:03;;;;;;;19.90;15.30;;;23.10;99.90;;;;;;5021441;28;20214;-91
2021/08/13 07:29:35;;;;;;;21.10;14.93;;;23.20;99.90;;;;;;5020420;28;20233;-92
2021/08/13 07:37:47;;;;;;;18.13;14.57;;;23.20;99.90;;;;;;5022956;28;20244;-92
2021/08/13 07:40:19;;;;;;;17.77;15.07;;;23.20;99.90;;;;;;5019697;28;20558;-93
2021/08/13 07:42:50;;;;;;;15.80;14.03;;;23.20;99.90;;;;;;5018687;28;20213;-92
2021/08/13 07:45:21;;;;;;;17.80;14.37;;;23.20;99.90;;;;;;5018259;28;20293;-92
2021/08/13 07:47:55;;;;;;;19.77;14.23;;;23.10;99.90;;;;;;5019613;28;20293;-92
2021/08/13 07:50:27;;;;;;;15.27;13.63;;;23.10;99.90;;;;;;5029313;28;20213;-92
2021/08/13 07:53:02;;;;;;;16.40;13.70;;;23.00;99.90;;;;;;5018523;28;20214;-92
2021/08/13 07:55:37;;;;;;;15.90;13.83;;;23.00;99.90;;;;;;5022906;28;20244;-92
2021/08/13 07:58:09;;;;;;;18.97;14.87;;;22.90;99.90;;;;;;5020302;28;20645;-92
2021/08/13 08:00:40;;;;;;;18.87;14.57;;;22.90;99.90;;;;;;5017487;28;20212;-92
2021/08/13 08:03:12;;;;;;;17.17;14.00;;;22.90;99.90;;;;;;5019758;28;20272;-92
2021/08/13 08:05:44;;;;;;;17.87;13.33;;;22.90;99.90;;;;;;5017482;28;20229;-92
2021/08/13 08:08:20;;;;;;;19.03;13.70;;;22.90;99.90;;;;;;5017937;28;20280;-92
2021/08/13 08:10:51;;;;;;;15.77;13.10;;;22.80;99.90;;;;;;5017315;28;20627;-92
2021/08/13 08:13:22;;;;;;;14.97;13.37;;;22.80;99.90;;;;;;4998511;28;20232;-92
2021/08/13 08:15:54;;;;;;;16.37;13.67;;;22.80;99.90;;;;;;5007190;28;20268;-92
2021/08/13 08:18:26;;;;;;;14.77;13.27;;;22.70;99.90;;;;;;5017539;28;20648;-91
2021/08/13 08:20:58;;;;;;;19.23;13.77;;;22.70;99.90;;;;;;4998983;28;20225;-92
2021/08/13 08:23:31;;;;;;;17.30;13.27;;;22.70;99.90;;;;;;5006377;28;20214;-93
2021/08/13 08:26:03;;;;;;;17.27;13.90;;;22.60;99.90;;;;;;4999941;28;20210;-94
2021/08/13 08:28:35;;;;;;;16.67;13.90;;;22.60;99.90;;;;;;5002033;28;20249;-90
2021/08/13 08:31:06;;;;;;;14.77;13.20;;;22.60;99.90;;;;;;5003132;28;20218;-92
2021/08/13 08:33:38;;;;;;;18.97;12.63;;;22.60;99.90;;;;;;5002549;28;20206;-91
2021/08/13 08:36:09;;;;;;;16.00;13.57;;;22.60;99.90;;;;;;4998690;28;20252;-91
2021/08/13 08:38:43;;;;;;;15.20;13.37;;;22.60;99.90;;;;;;4998803;28;20214;-91
2021/08/13 08:41:15;;;;;;;16.37;12.60;;;22.50;99.90;;;;;;4997939;28;20209;-91
2021/08/13 08:43:49;;;;;;;18.17;13.27;;;22.50;99.90;;;;;;4998070;28;20214;-91
2021/08/13 08:46:22;;;;;;;17.07;12.53;;;22.50;99.90;;;;;;4999556;28;20211;-91
2021/08/13 08:48:55;;;;;;;15.27;12.03;;;22.50;99.90;;;;;;5004382;28;20228;-90
2021/08/13 08:51:27;;;;;;;16.10;12.43;;;22.50;99.90;;;;;;5000841;28;20236;-91
2021/08/13 08:54:01;;;;;;;15.10;12.77;;;22.50;99.90;;;;;;5002197;28;20215;-90
2021/08/13 08:56:33;;;;;;;14.40;12.47;;;22.50;99.90;;;;;;5001786;28;20286;-90
2021/08/13 08:59:08;;;;;;;17.30;13.20;;;22.50;99.90;;;;;;5001880;28;20218;-91
2021/08/13 09:01:41;;;;;;;16.93;12.63;;;22.50;99.90;;;;;;5000556;28;20217;-91
2021/08/13 09:04:14;;;;;;;15.80;13.00;;;22.50;99.90;;;;;;5010582;28;20284;-91
2021/08/13 09:06:46;;;;;;;16.63;12.40;;;22.40;99.90;;;;;;5021533;28;20610;-90
2021/08/13 09:09:20;;;;;;;17.77;12.10;;;22.40;99.90;;;;;;5021595;28;20260;-90
2021/08/13 09:11:55;;;;;;;15.17;12.53;;;22.50;99.90;;;;;;5020719;28;20235;-91
2021/08/13 09:14:39;;;;;;;16.20;12.83;;;22.40;99.90;;;;;;5021205;28;20232;-91
2021/08/13 09:17:10;;;;;;;16.07;12.73;;;22.40;99.90;;;;;;5020192;28;20229;-91
2021/08/13 09:19:46;;;;;;;14.90;12.27;;;22.40;99.90;;;;;;5012356;28;20241;-91
2021/08/13 09:22:19;;;;;;;18.27;12.77;;;22.30;99.90;;;;;;5002079;28;20260;-91
2021/08/13 09:24:54;;;;;;;16.77;13.00;;;22.20;99.90;;;;;;5015271;28;20202;-91
2021/08/13 09:27:31;;;;;;;17.30;12.57;;;22.10;99.90;;;;;;5020217;28;20190;-90
2021/08/13 09:30:17;;;;;;;20.47;13.43;;;22.00;99.90;;;;;;5019695;28;20298;-91
2021/08/13 09:32:58;;;;;;;13.80;12.20;;;21.90;99.90;;;;;;5008868;28;20670;-91
2021/08/13 09:35:34;;;;;;;22.13;13.10;;;21.90;99.90;;;;;;5016410;28;20233;-91
2021/08/13 09:38:11;;;;;;;15.67;12.20;;;21.80;99.90;;;;;;5022854;28;20217;-91
2021/08/13 09:40:48;;;;;;;15.77;13.07;;;21.70;99.90;;;;;;5023047;28;20644;-91
2021/08/13 09:43:20;;;;;;;17.30;13.43;;;21.70;99.90;;;;;;5021325;28;20197;-91
2021/08/13 09:46:07;;;;;;;18.00;13.03;;;21.70;99.90;;;;;;5020690;28;20205;-91
2021/08/13 09:48:38;;;;;;;14.23;12.13;;;21.60;99.90;;;;;;5020862;28;20263;-90
2021/08/13 09:51:31;;;;;;;18.00;13.90;;;21.50;99.90;;;;;;5020129;28;20737;-91
2021/08/13 09:54:05;;;;;;;16.30;12.13;;;21.50;99.90;;;;;;5020701;28;20220;-91
2021/08/13 09:56:39;;;;;;;17.17;12.90;;;21.50;99.90;;;;;;5022609;28;20793;-91
2021/08/13 09:59:16;;;;;;;15.67;12.83;;;21.50;99.90;;;;;;5024341;28;20204;-90
2021/08/13 10:01:49;;;;;;;17.63;13.23;;;21.40;99.90;;;;;;5022036;28;20223;-90
2021/08/13 10:04:33;;;;;;;15.13;13.03;;;21.40;99.90;;;;;;5022658;28;20296;-91
2021/08/13 10:07:06;;;;;;;15.43;13.07;;;21.40;99.90;;;;;;5022812;28;20210;-90
2021/08/13 10:09:37;;;;;;;16.77;13.30;;;21.30;99.90;;;;;;5004294;28;20290;-91
2021/08/13 10:12:11;;;;;;;16.70;13.23;;;21.20;99.90;;;;;;5003373;28;20210;-91
2021/08/13 10:14:44;;;;;;;16.20;13.30;;;21.30;99.90;;;;;;5005271;28;20218;-90
2021/08/13 10:17:17;;;;;;;14.77;13.27;;;21.20;99.90;;;;;;5012341;28;20266;-90
2021/08/13 10:19:49;;;;;;;15.80;13.77;;;21.20;99.90;;;;;;5016862;28;20211;-91
2021/08/13 10:22:22;;;;;;;14.37;12.87;;;21.20;99.90;;;;;;5018167;28;20255;-91
2021/08/13 10:24:53;;;;;;;18.13;13.63;;;21.20;99.90;;;;;;5018986;28;20210;-91
2021/08/13 10:27:30;;;;;;;15.63;13.67;;;21.10;99.90;;;;;;5029943;28;20208;-91
2021/08/13 10:30:02;;;;;;;16.53;13.67;;;21.10;99.90;;;;;;5038739;28;20256;-91
2021/08/13 10:32:37;;;;;;;15.93;12.97;;;21.10;99.90;;;;;;5035857;28;20626;-91
2021/08/13 10:35:09;;;;;;;17.73;13.70;;;21.10;99.90;;;;;;5023351;28;20236;-91
2021/08/13 10:37:42;;;;;;;16.13;13.10;;;21.10;99.90;;;;;;5020208;28;20280;-91
2021/08/13 10:40:16;;;;;;;16.47;13.43;;;21.00;99.90;;;;;;5022033;28;20634;-91
2021/08/13 10:42:53;;;;;;;17.00;13.70;;;21.00;99.90;;;;;;5020215;28;20216;-91
2021/08/13 10:45:25;;;;;;;19.40;14.07;;;20.90;99.90;;;;;;5021296;28;20209;-91
2021/08/13 10:48:04;;;;;;;17.13;14.27;;;20.90;99.90;;;;;;5022897;28;20217;-91
2021/08/13 10:50:38;;;;;;;21.67;13.67;;;20.90;99.90;;;;;;5021492;28;20312;-91
2021/08/13 10:53:28;;;;;;;18.57;15.73;;;20.90;99.90;;;;;;5019123;28;20236;-91
2021/08/13 10:56:00;;;;;;;16.93;14.83;;;20.90;99.90;;;;;;5023225;28;20260;-90
2021/08/13 10:58:51;;;;;;;17.23;15.43;;;20.90;99.90;;;;;;5020958;28;20218;-90
2021/08/13 11:01:23;;;;;;;17.77;14.77;;;20.80;99.90;;;;;;5018481;28;20273;-90
2021/08/13 11:04:16;;;;;;;18.07;14.63;;;20.70;99.90;;;;;;5021704;28;20229;-90
2021/08/13 11:06:48;;;;;;;18.53;14.67;;;20.70;99.90;;;;;;5018554;28;20201;-90
2021/08/13 11:09:36;;;;;;;19.20;14.97;;;20.70;99.90;;;;;;5017447;28;20244;-90
2021/08/13 11:12:10;;;;;;;16.00;14.23;;;20.70;99.90;;;;;;5018440;28;20249;-90
2021/08/13 11:14:52;;;;;;;18.70;14.57;;;20.70;99.90;;;;;;5018984;28;20217;-90
2021/08/13 11:17:35;;;;;;;19.40;14.93;;;20.70;99.90;;;;;;4998832;28;20285;-91
2021/08/13 11:20:08;;;;;;;21.87;15.00;;;20.60;99.90;;;;;;4999112;28;20722;-91
2021/08/13 11:22:43;;;;;;;16.63;14.80;;;20.50;99.90;;;;;;5001344;28;20198;-90
2021/08/13 11:25:16;;;;;;;16.43;14.80;;;20.50;99.90;;;;;;4998100;28;20576;-90
2021/08/13 11:28:20;;;;;;;18.87;14.63;;;20.50;99.90;;;;;;4999673;28;20230;-91
2021/08/13 11:30:54;;;;;;;19.63;15.07;;;20.50;99.90;;;;;;4998731;28;20674;-91
2021/08/13 11:33:40;;;;;;;17.57;15.77;;;20.50;99.90;;;;;;5002419;28;20221;-90
2021/08/13 11:36:47;;;;;;;19.73;15.47;;;20.50;99.90;;;;;;5026218;28;20686;-91
2021/08/13 11:39:40;;;;;;;17.47;15.67;;;20.50;99.90;;;;;;5018271;28;20228;-90
2021/08/13 11:42:12;;;;;;;17.50;15.67;;;20.40;99.90;;;;;;5019770;28;20229;-91
2021/08/13 11:44:44;;;;;;;18.20;15.27;;;20.40;99.90;;;;;;5020377;28;20213;-91
2021/08/13 11:47:18;;;;;;;18.97;15.80;;;20.30;99.90;;;;;;4999842;28;20234;-91
2021/08/13 11:49:50;;;;;;;19.17;16.10;;;20.40;99.90;;;;;;5028344;28;20267;-90
2021/08/13 11:52:22;;;;;;;20.43;16.43;;;20.30;99.90;;;;;;5036254;28;20205;-91
2021/08/13 11:57:32;;;;;;;21.40;16.80;;;20.30;99.90;;;;;;5004321;28;20332;-90
2021/08/13 12:00:04;;;;;;;20.23;18.13;;;20.30;99.90;;;;;;5016894;28;20186;-91
2021/08/13 12:02:39;;;;;;;19.83;17.53;;;20.30;99.90;;;;;;5011639;28;20246;-91
2021/08/13 12:05:13;;;;;;;19.90;16.90;;;20.30;99.90;;;;;;5001598;28;20209;-91
2021/08/13 12:07:45;;;;;;;20.77;18.63;;;20.30;99.90;;;;;;5001569;28;20218;-91
2021/08/13 12:10:20;;;;;;;20.03;18.00;;;20.20;99.90;;;;;;4998884;28;20212;-91
2021/08/13 12:12:53;;;;;;;22.17;19.47;;;20.20;99.90;;;;;;5003090;28;20202;-91
2021/08/13 12:15:34;;;;;;;27.10;19.67;;;20.10;99.90;;;;;;5001214;28;20694;-91
2021/08/13 12:18:09;;;;;;;20.93;18.70;;;20.10;99.90;;;;;;4997389;28;20265;-91
2021/08/13 12:20:46;;;;;;;20.20;18.10;;;20.10;99.90;;;;;;4999359;28;20205;-91
2021/08/13 12:23:19;;;;;;;21.80;18.97;;;20.20;99.90;;;;;;5003510;28;20626;-91
2021/08/13 12:25:54;;;;;;;24.10;20.07;;;20.20;99.90;;;;;;5007396;28;20190;-91
2021/08/13 12:28:32;;;;;;;21.53;19.27;;;20.10;99.90;;;;;;5003534;28;20210;-91
2021/08/13 12:31:09;;;;;;;22.90;18.93;;;20.10;99.90;;;;;;5007524;28;20273;-91
2021/08/13 12:33:42;;;;;;;23.63;18.83;;;20.10;99.90;;;;;;5004953;28;20209;-91
2021/08/13 12:36:17;;;;;;;20.23;18.13;;;20.10;99.90;;;;;;5001770;28;20209;-91
2021/08/13 12:38:55;;;;;;;21.73;19.43;;;20.10;99.90;;;;;;5001554;28;20233;-91
2021/08/13 12:41:26;;;;;;;21.07;18.77;;;20.10;99.90;;;;;;5000937;28;20285;-91
2021/08/13 12:43:58;;;;;;;23.47;19.33;;;20.10;99.90;;;;;;5001152;28;20207;-91
2021/08/13 12:46:34;;;;;;;21.23;18.73;;;20.10;99.90;;;;;;5001676;28;20304;-92
2021/08/13 12:49:09;;;;;;;21.97;18.30;;;20.10;99.90;;;;;;5001641;28;20270;-91
2021/08/13 12:51:40;;;;;;;25.30;19.47;;;20.10;99.90;;;;;;5000820;28;20241;-91
2021/08/13 12:54:33;;;;;;;21.23;18.37;;;20.10;99.90;;;;;;5001164;28;20213;-91
2021/08/13 12:57:11;;;;;;;21.47;18.80;;;20.10;99.90;;;;;;5000279;28;20229;-91
2021/08/13 12:59:45;;;;;;;24.27;19.87;;;20.10;99.90;;;;;;5000999;28;20542;-91
2021/08/13 13:02:24;;;;;;;21.50;19.33;;;20.10;99.90;;;;;;4999939;28;20217;-91
2021/08/13 13:05:09;;;;;;;23.70;20.00;;;20.00;99.90;;;;;;5000976;28;20202;-90
2021/08/13 13:07:42;;;;;;;22.87;20.27;;;20.00;99.90;;;;;;5011930;28;20234;-89
2021/08/13 13:10:20;;;;;;;22.80;20.50;;;20.00;99.90;;;;;;4980389;28;20207;-90
2021/08/13 13:12:52;;;;;;;23.97;21.40;;;20.00;99.90;;;;;;4981714;28;20319;-90
2021/08/13 13:15:28;;;;;;;24.10;20.47;;;20.00;99.90;;;;;;4985602;28;20242;-90
2021/08/13 13:18:01;;;;;;;25.97;22.07;;;20.10;99.90;;;;;;5000316;28;20767;-90
2021/08/13 13:20:39;;;;;;;25.20;21.17;;;20.00;99.90;;;;;;5002532;28;20248;-91
2021/08/13 13:23:12;;;;;;;24.40;21.37;;;20.10;99.90;;;;;;5003398;28;20286;-92
2021/08/13 13:25:46;;;;;;;22.57;20.17;;;20.10;99.90;;;;;;5001376;28;20289;-93
2021/08/13 13:31:19;;;;;;;26.03;21.17;;;20.10;99.90;;;;;;5000363;28;20253;-92
2021/08/13 13:34:01;;;;;;;23.57;21.10;;;20.10;99.90;;;;;;4999454;28;20293;-92
2021/08/13 13:36:37;;;;;;;24.37;21.53;;;20.20;99.90;;;;;;5001010;28;20218;-92
2021/08/13 13:39:08;;;;;;;26.53;21.97;;;20.30;99.90;;;;;;4999956;28;20318;-91
2021/08/13 13:41:41;;;;;;;25.90;22.57;;;20.30;99.90;;;;;;5000125;28;20206;-92
2021/08/13 13:44:13;;;;;;;26.97;22.67;;;20.40;99.90;;;;;;5000166;28;20294;-91
2021/08/13 13:46:45;;;;;;;26.50;22.57;;;20.40;99.90;;;;;;4984110;28;20222;-92
2021/08/13 13:49:17;;;;;;;24.13;21.67;;;20.40;99.90;;;;;;4979817;28;20234;-91
2021/08/13 13:51:50;;;;;;;24.57;21.97;;;20.30;99.90;;;;;;4980051;28;20272;-91
2021/08/13 13:54:23;;;;;;;25.10;22.27;;;20.40;99.90;;;;;;4980224;28;20211;-90
2021/08/13 13:56:54;;;;;;;29.33;22.47;;;20.40;99.90;;;;;;4982638;28;20621;-89
2021/08/13 13:59:26;;;;;;;25.03;22.27;;;20.40;99.90;;;;;;4980545;28;20245;-90
2021/08/13 14:01:58;;;;;;;28.90;23.53;;;20.40;99.90;;;;;;4980212;28;20211;-90
2021/08/13 14:04:30;;;;;;;25.53;21.83;;;20.40;99.90;;;;;;4980317;28;20211;-90
2021/08/13 14:07:04;;;;;;;25.40;22.13;;;20.50;99.90;;;;;;4980859;28;20644;-89
2021/08/13 14:09:35;;;;;;;26.33;21.27;;;20.50;99.90;;;;;;4983125;28;20237;-90
2021/08/13 14:12:07;;;;;;;27.47;22.03;;;20.50;99.90;;;;;;4992442;28;20270;-90
2021/08/13 14:14:39;;;;;;;29.07;22.20;;;20.60;99.90;;;;;;5001631;28;20214;-91
2021/08/13 14:17:12;;;;;;;25.03;22.37;;;20.60;99.90;;;;;;5002574;28;20206;-90
2021/08/13 14:19:44;;;;;;;32.50;25.60;;;20.60;99.90;;;;;;5018439;28;20241;-90
2021/08/13 14:22:17;;;;;;;25.80;22.87;;;20.60;99.90;;;;;;5018313;28;20190;-90
2021/08/13 14:24:50;;;;;;;26.27;22.10;;;20.60;99.90;;;;;;5016526;28;20211;-92
2021/08/13 14:27:21;;;;;;;26.63;22.97;;;20.60;99.90;;;;;;5007222;28;20241;-93
2021/08/13 14:29:53;;;;;;;28.40;22.93;;;20.60;99.90;;;;;;5000769;28;20226;-92
2021/08/13 14:32:25;;;;;;;25.93;22.33;;;20.70;99.90;;;;;;5002810;28;20273;-92
2021/08/13 14:34:56;;;;;;;27.50;23.53;;;20.80;99.90;;;;;;5017993;28;20217;-92
2021/08/13 14:37:31;;;;;;;29.47;22.23;;;20.80;99.90;;;;;;5019587;28;20267;-92
2021/08/13 14:40:02;;;;;;;33.70;23.33;;;20.90;99.90;;;;;;5020774;28;20321;-91
2021/08/13 14:42:34;;;;;;;28.90;22.53;;;21.00;99.90;;;;;;5019454;28;20213;-92
2021/08/13 14:45:06;;;;;;;34.90;23.37;;;21.00;99.90;;;;;;5016276;28;20575;-92
2021/08/13 14:47:38;;;;;;;30.23;23.03;;;21.10;99.90;;;;;;5004785;28;20214;-91
2021/08/13 14:50:11;;;;;;;25.97;21.83;;;21.20;99.90;;;;;;5001676;28;20203;-92
2021/08/13 14:52:44;;;;;;;26.73;22.37;;;21.20;99.90;;;;;;5000099;28;20229;-91
2021/08/13 14:55:15;;;;;;;29.53;22.43;;;21.20;99.90;;;;;;4999947;28;20241;-90
2021/08/13 14:57:47;;;;;;;32.37;22.23;;;21.30;99.90;;;;;;5000157;28;20288;-91